• Join FlightAware (Why Join?)
  • Login
  • US Flag 
08:30PM EDT


 

Airport Tracker/Info


-or-


 

Live Flight TrackerFlight Track Log ✈ AAL1805 ✈ 29-Apr-2013 ✈ KDCA - KMIA

Flight Track Log - Related Links

Times and Time Zones

All times are in EDT time to prevent confusion due to time zone crossing. See the AAL1805 flight status page for this flight to view local times or setup timezone preferences in your user account.

Time Position Orientation Groundspeed Altitude Reporting Facility
EDT Latitude Longitude Course Direction KTS MPH feet Rate Location/Type
03:52PM 38.8160 -77.0330 171° South 166 191 1,400  Level FlightAware
03:53PM 38.7960 -77.0310 176° South 197 227 1,900 1,620 Climbing FlightAware
03:53PM 38.7650 -77.0280 176° South 224 258 2,900 2,040 Climbing FlightAware
03:54PM 38.7380 -77.0250 175° South 243 280 3,800 1,920 Climbing FlightAware
03:54PM 38.7210 -77.0280 188° South 256 295 4,200 960 Climbing FlightAware
03:54PM 38.7080 -77.0380 211° Southwest 262 302 4,300 600 Climbing FlightAware
03:54PM 38.6940 -77.0560 225° Southwest 262 302 4,500 1,380 Climbing FlightAware
03:55PM 38.6860 -77.0740 240° Southwest 264 304 5,000 2,400 Climbing FlightAware
03:55PM 38.6790 -77.1140 257° West 271 312 6,100 2,700 Climbing FlightAware
03:56PM 38.6710 -77.1630 258° West 278 320 7,500 2,880 Climbing FlightAware
03:56PM 38.6640 -77.2080 259° West 280 322 9,000 2,460 Climbing FlightAware
03:57PM 38.6600 -77.2360 260° West 284 327 9,800 1,920 Climbing FlightAware
03:57PM 38.6430 -77.2950 250° West 311 358 10,800 1,920 Climbing FlightAware
03:58PM 38.6000 -77.3480 224° Southwest 348 400 11,900 2,520 Climbing FlightAware
03:58PM 38.5400 -77.4120 220° Southwest 365 420 14,200 3,000 Climbing FlightAware
03:59PM 38.4820 -77.4750 220° Southwest 373 429 16,400 2,820 Climbing FlightAware
04:00PM 38.4280 -77.5320 220° Southwest 384 442 18,200 2,640 Climbing FlightAware
04:01PM 38.3710 -77.6050 225° Southwest 392 451 20,200 2,520 Climbing FlightAware
04:01PM 38.3250 -77.6770 231° Southwest 399 459 21,800 2,160 Climbing FlightAware
04:02PM 38.2750 -77.7540 230° Southwest 407 468 23,300 2,100 Climbing FlightAware
04:03PM 38.2230 -77.8350 231° Southwest 416 479 24,800 2,220 Climbing FlightAware
04:03PM 38.1740 -77.9090 230° Southwest 416 479 26,300 2,100 Climbing FlightAware
04:04PM 38.1170 -77.9960 230° Southwest 419 482 27,800 1,740 Climbing FlightAware
04:05PM 38.0680 -78.0700 230° Southwest 423 487 28,800 1,500 Climbing FlightAware
04:05PM 38.0100 -78.1540 229° Southwest 425 489 30,000 840 Climbing FlightAware
04:06PM 37.9480 -78.2160 218° Southwest 427 491 30,000  Level FlightAware
04:07PM 37.9760 -78.1890 37° Northeast 429 494 30,000  Level FlightAware
04:08PM 37.8130 -78.3440 217° Southwest 426 490 30,000 840 Level FlightAware
04:08PM 37.7610 -78.3940 217° Southwest 415 478 31,300 2,100 Climbing FlightAware
04:09PM 37.6850 -78.4670 217° Southwest 402 463 33,000 1,080 Climbing FlightAware
04:10PM 37.6270 -78.5210 216° Southwest 402 463 33,000  Level FlightAware
04:10PM 37.5610 -78.5830 217° Southwest 403 464 33,000  Level FlightAware
04:11PM 37.4960 -78.6410 215° Southwest 403 464 33,000  Level FlightAware
04:12PM 37.4450 -78.6880 216° Southwest 403 464 33,000 1,980 Level FlightAware
04:13PM 37.3520 -78.7780 218° Southwest 400 460 36,000 1,800 Climbing FlightAware
04:14PM 37.2890 -78.8360 216° Southwest 400 460 36,000  Level FlightAware
04:15PM 37.1830 -78.9360 217° Southwest 36,000  Level FlightAware
04:16PM 37.1047 -79.0086 217° Southwest 416 479 36,000  Level Washington Center
04:17PM 37.0125 -79.0931 216° Southwest 416 479 36,000  Level Washington Center
04:18PM 36.9158 -79.1822 216° Southwest 411 473 36,000  Level Washington Center
04:19PM 36.8258 -79.2686 218° Southwest 411 473 36,000  Level Washington Center
04:20PM 36.7333 -79.3500 215° Southwest 411 473 36,000  Level Washington Center
04:21PM 36.6431 -79.4336 217° Southwest 411 473 36,000  Level Washington Center
04:22PM 36.5614 -79.5069 216° Southwest 411 473 36,000  Level Washington Center
04:23PM 36.3808 -79.6678 216° Southwest 416 479 36,000  Level Atlanta Center
04:24PM 36.2919 -79.7497 217° Southwest 416 479 36,000  Level Atlanta Center
04:25PM 36.1989 -79.8344 216° Southwest 421 484 36,000  Level Atlanta Center
04:26PM 36.1058 -79.9164 215° Southwest 421 484 36,000  Level Atlanta Center
04:27PM 36.0183 -79.9850 212° Southwest 421 484 36,000  Level Atlanta Center
04:28PM 35.9158 -80.0389 203° Southwest 414 476 36,000  Level Atlanta Center
04:29PM 35.8072 -80.0931 202° Southwest 414 476 36,000  Level Atlanta Center
04:35PM 35.2500 -80.3760 202° Southwest 418 481 36,000  Level FlightAware
04:35PM 35.1710 -80.4150 202° Southwest 418 481 36,000  Level FlightAware
04:36PM 35.0990 -80.4500 202° Southwest 413 475 36,000  Level FlightAware
04:37PM 35.0310 -80.4840 202° Southwest 413 475 36,000  Level FlightAware
04:37PM 34.9600 -80.5190 202° Southwest 413 475 36,000  Level FlightAware
04:38PM 34.8700 -80.5630 202° Southwest 411 473 36,000  Level FlightAware
04:39PM 34.7990 -80.5980 202° Southwest 410 472 36,000  Level FlightAware
04:40PM 34.7210 -80.6360 202° Southwest 407 468 36,000  Level FlightAware
04:40PM 34.6630 -80.6650 202° Southwest 403 464 36,000  Level FlightAware
04:41PM 34.5820 -80.7040 202° Southwest 397 457 36,000  Level FlightAware
04:42PM 34.5070 -80.7410 202° Southwest 394 453 36,000  Level FlightAware
04:42PM 34.4390 -80.7740 202° Southwest 393 452 36,000  Level FlightAware
04:43PM 34.3450 -80.8190 202° Southwest 390 449 36,000  Level FlightAware
04:44PM 34.2710 -80.8550 202° Southwest 390 449 36,000  Level FlightAware
04:45PM 34.2100 -80.8840 201° Southwest 390 449 36,000  Level FlightAware
04:45PM 34.1390 -80.9180 202° Southwest 393 452 36,000  Level FlightAware
04:46PM 34.0630 -80.9550 202° Southwest 396 456 36,000  Level FlightAware
04:47PM 33.9950 -80.9880 202° Southwest 397 457 36,000  Level FlightAware
04:47PM 33.9210 -81.0240 202° Southwest 398 458 36,000  Level FlightAware
04:48PM 33.8480 -81.0520 198° South 405 466 36,000  Level FlightAware
04:49PM 33.7730 -81.0610 186° South 412 474 36,000  Level FlightAware
04:50PM 33.6880 -81.0690 184° South 413 475 36,000  Level FlightAware
04:50PM 33.6140 -81.0750 184° South 413 475 36,000  Level FlightAware
04:51PM 33.5260 -81.0820 184° South 412 474 36,000  Level FlightAware
04:52PM 33.4500 -81.0890 184° South 411 473 36,000  Level FlightAware
04:52PM 33.3750 -81.0960 184° South 410 472 36,000  Level FlightAware
04:53PM 33.2890 -81.1030 184° South 409 471 36,000  Level FlightAware
04:54PM 33.2140 -81.1090 184° South 408 470 36,000  Level FlightAware
04:54PM 33.1390 -81.1160 184° South 407 468 36,000 240 Level FlightAware
04:55PM 33.0550 -81.1230 184° South 414 476 36,400 660 Climbing FlightAware
04:56PM 32.9770 -81.1290 184° South 418 481 37,000 900 Climbing FlightAware
04:56PM 32.9000 -81.1360 184° South 420 483 37,600 660 Climbing FlightAware
04:57PM 32.8120 -81.1430 184° South 426 490 38,000 240 Climbing FlightAware
04:58PM 32.7350 -81.1500 184° South 427 491 38,000  Level FlightAware
04:59PM 32.6460 -81.1570 184° South 419 482 38,000 300 Level FlightAware
04:59PM 32.7080 -81.1520 North 38,000 420 Level FlightAware
05:01PM 32.3820 -81.1800 184° South 413 475 39,000 480 Climbing FlightAware
05:02PM 32.3220 -81.1850 184° South 413 475 39,000  Level FlightAware
05:02PM 32.2570 -81.1900 184° South 413 475 39,000  Level FlightAware
05:03PM 32.1760 -81.1970 184° South 413 475 39,000  Level FlightAware
05:04PM 32.1120 -81.2020 184° South 413 475 39,000  Level FlightAware
05:04PM 32.0470 -81.2070 184° South 413 475 39,000  Level FlightAware
05:05PM 31.9820 -81.2130 184° South 413 475 39,000  Level FlightAware
05:06PM 31.9010 -81.2190 184° South 413 475 39,000  Level FlightAware
05:07PM 31.8360 -81.2250 184° South 413 475 39,000  Level FlightAware
05:07PM 31.7710 -81.2300 184° South 413 475 39,000  Level FlightAware
05:08PM 31.7070 -81.2350 184° South 413 475 39,000  Level FlightAware
05:09PM 31.6420 -81.2410 184° South 413 475 39,000  Level FlightAware
05:09PM 31.5610 -81.2470 184° South 413 475 39,000  Level FlightAware
05:10PM 31.4960 -81.2530 185° South 413 475 39,000  Level FlightAware
05:11PM 31.4310 -81.2580 184° South 413 475 39,000 840 Level FlightAware
05:11PM 31.1650 -81.1614 184° South 438 504 40,000 600 Climbing Jacksonville Center
05:12PM 31.0458 -81.1442 173° South 443 510 39,900  Descending Jacksonville Center
05:13PM 30.9244 -81.1297 174° South 443 510 40,000  Climbing Jacksonville Center
05:14PM 30.8031 -81.1125 173° South 443 510 40,000  Level Jacksonville Center
05:15PM 30.6797 -81.0978 174° South 443 510 40,000  Level Jacksonville Center
05:16PM 30.5606 -81.0783 172° South 443 510 40,000 -60 Level Jacksonville Center
05:17PM 30.4392 -81.0639 174° South 443 510 39,900 -60 Descending Jacksonville Center
05:18PM 30.3178 -81.0444 172° South 443 510 39,900  Level Jacksonville Center
05:19PM 30.1861 -81.0303 175° South 443 510 39,900  Level Jacksonville Center
05:20PM 30.0647 -81.0108 172° South 443 510 39,900  Level Jacksonville Center
05:26PM 29.4220 -80.9260 172° South 439 505 40,000  Climbing FlightAware
05:26PM 29.3440 -80.9150 173° South 441 507 40,000  Level FlightAware
05:27PM 29.2360 -80.9010 174° South 435 501 40,000  Level FlightAware
05:28PM 29.1540 -80.8900 173° South 438 504 40,000  Level FlightAware
05:29PM 29.0400 -80.8630 168° South 449 517 40,000  Level FlightAware
05:29PM 28.9470 -80.8340 165° South 450 518 40,000  Level FlightAware
05:30PM 28.8670 -80.8100 165° South 449 517 40,000  Level FlightAware
05:31PM 28.7740 -80.7810 165° South 448 516 40,000  Level FlightAware
05:32PM 28.6930 -80.7560 165° South 449 517 40,000  Level FlightAware
05:32PM 28.6100 -80.7310 165° South 448 516 40,000  Level FlightAware
05:33PM 28.5190 -80.7040 165° South 446 513 40,000  Level FlightAware
05:34PM 28.4370 -80.6780 164° South 453 521 40,000  Level FlightAware
05:34PM 28.3510 -80.6520 165° South 452 520 40,000  Level FlightAware
05:35PM 28.2680 -80.6270 165° South 453 521 40,000  Level FlightAware
05:36PM 28.1770 -80.5990 165° South 451 519 40,000  Level FlightAware
05:36PM 28.0950 -80.5750 166° South 451 519 40,000  Level FlightAware
05:37PM 28.0130 -80.5500 165° South 451 519 40,000 -120 Level FlightAware
05:38PM 27.9240 -80.5230 165° South 447 514 39,900 -1,200 Descending FlightAware
05:39PM 27.8400 -80.4980 165° South 447 514 38,300 -2,580 Descending FlightAware
05:39PM 27.7640 -80.4750 165° South 447 514 36,500 -2,940 Descending FlightAware
05:40PM 27.6700 -80.4470 165° South 451 519 34,200 -2,040 Descending FlightAware
05:41PM 27.5760 -80.4190 165° South 451 519 33,300 -2,220 Descending FlightAware
05:42PM 27.4710 -80.3870 165° South 448 516 30,700 -2,880 Descending FlightAware
05:42PM 27.3960 -80.3650 165° South 432 497 29,300 -1,800 Descending FlightAware
05:43PM 27.3090 -80.3380 165° South 438 504 28,200 -1,800 Descending FlightAware
05:44PM 27.2210 -80.3040 161° South 429 494 26,600 -2,280 Descending FlightAware
05:44PM 27.1470 -80.2740 160° South 427 491 25,000 -2,340 Descending FlightAware
05:45PM 27.0710 -80.2440 161° South 426 490 23,500 -2,100 Descending FlightAware
05:46PM 26.9890 -80.2110 160° South 409 471 22,100 -1,920 Descending FlightAware
05:46PM 26.9190 -80.1830 160° South 392 451 20,800 -1,980 Descending FlightAware
05:47PM 26.8500 -80.1540 159° South 394 453 19,500 -1,920 Descending FlightAware
05:48PM 26.7730 -80.1240 161° South 377 434 18,100 -1,920 Descending FlightAware
05:48PM 26.7130 -80.1000 160° South 378 435 17,000 -1,860 Descending FlightAware
05:49PM 26.6300 -80.0780 167° South 359 413 15,500 -1,740 Descending FlightAware
05:50PM 26.5650 -80.0670 171° South 355 409 14,400 -1,500 Descending FlightAware
05:51PM 26.4920 -80.0540 171° South 329 379 13,400 -1,080 Descending FlightAware
05:51PM 26.4340 -80.0440 171° South 306 352 12,900 -420 Descending FlightAware
05:52PM 26.3760 -80.0340 171° South 307 353 12,900 60 Level FlightAware
05:53PM 26.3160 -80.0240 172° South 294 338 13,000  Climbing FlightAware
05:53PM 26.2650 -80.0160 172° South 306 352 12,900 -120 Descending FlightAware
05:54PM 26.1930 -80.0300 190° South 299 344 12,900 -360 Level FlightAware
05:55PM 26.1400 -80.0460 195° South 297 342 12,400 -1,320 Descending FlightAware
05:56PM 26.0810 -80.0620 194° South 299 344 11,200 -1,740 Descending FlightAware
05:56PM 26.0180 -80.0800 194° South 296 341 10,000 -1,560 Descending FlightAware
05:57PM 25.9860 -80.0890 194° South 291 335 9,400 -1,200 Descending FlightAware
05:57PM 25.9670 -80.0970 201° Southwest 280 322 9,200 -1,020 Descending FlightAware
05:57PM 25.9540 -80.1110 224° Southwest 277 319 8,900 -1,500 Descending FlightAware
05:58PM 25.9320 -80.1490 237° Southwest 277 319 8,100 -1,140 Descending FlightAware
05:58PM 25.9180 -80.1780 242° Southwest 262 302 7,900 -240 Descending FlightAware
05:59PM 25.9050 -80.2160 249° West 253 291 7,900 -180 Level FlightAware
05:59PM 25.9030 -80.2290 260° West 247 284 7,800 -1,500 Descending FlightAware
05:59PM 25.9050 -80.2670 273° West 255 293 6,900 -1,920 Descending FlightAware
06:00PM 25.9070 -80.3050 273° West 262 302 5,900 -1,800 Descending FlightAware
06:00PM 25.9090 -80.3420 273° West 268 308 5,100 -1,800 Descending FlightAware
06:01PM 25.9120 -80.3790 275° West 276 318 4,300 -1,320 Descending FlightAware
06:01PM 25.9150 -80.4220 274° West 259 298 3,900 -840 Descending FlightAware
06:02PM 25.9170 -80.4480 275° West 242 278 3,600 -600 Descending FlightAware
06:02PM 25.9110 -80.4700 253° West 220 253 3,500 -540 Descending FlightAware
06:02PM 25.8980 -80.4790 212° Southwest 199 229 3,300 -720 Descending FlightAware
06:03PM 25.8770 -80.4690 157° South 177 204 3,000 -480 Descending FlightAware
06:03PM 25.8740 -80.4600 110° East 177 204 3,000 -600 Level FlightAware
06:03PM 25.8670 -80.4340 107° East 172 198 2,600 -720 Descending FlightAware
06:04PM 25.8620 -80.4240 119° Southeast 171 197 2,500 -780 Descending FlightAware
06:04PM 25.8520 -80.4050 120° Southeast 156 180 2,100 -1,020 Descending FlightAware
06:04PM 25.8410 -80.3840 120° Southeast 146 168 1,600 -900 Descending FlightAware
06:05PM 25.8330 -80.3680 119° Southeast 136 157 1,300 -780 Descending FlightAware
06:05PM 25.8250 -80.3520 119° Southeast 128 147 900 -720 Descending FlightAware
06:06PM 25.8160 -80.3350 120° Southeast 131 151 600 -660 Descending FlightAware
06:06PM 25.8080 -80.3190 119° Southeast 134 154 300 -720 Descending FlightAware
06:07PM 25.7980 -80.3010 122° Southeast 140 161 -600 Descending FlightAware